New Galilee, Pennsylvania
Current Conditions -  °F | °C
As of 5:55 AM on Sunday 23 Nov 2014 (Local Time) from KBTP Reporting Station
Overcast Overcast  
Wind Chill: 44°   Ceiling: 4000
Heat Index: 46°   Visibility: 10mi
Dew Point: 34°   Wind: 5mph
Humidity: 62%   Direction: 160°SSE
Pressure: 30.1"   Gusts: NA
Location:  40.84°N, 80.4°W
Report Text: KBTP 231055Z AUTO 16004KT 10SM OVC040 08/01 A3010 RMK AO1
Loading
Personal Weather Stations






























Interactive Weather Map New forecast layout! Learn more

10-Day Weather Forecast

Advertisements
Track Severe Weather on mobile